Terminal Aerodrome Forecast
Issued by NWS Wilmington, OH

Current Version | Previous Version | Text Only | Print | Product List | Glossary Off
Versions: 1 2 3 4 5 6 7 8 9 10 11 12 13 14 15 16 17 18 19 20 21 22 23 24 25 26 27

000
FTUS41 KILN 180500
TAFCVG
TAF
KCVG 180533Z 1806/1912 24008KT P6SM SCT040
     FM181000 25010KT 6SM -SHSN BR SCT025 BKN040
      TEMPO 1810/1812 2SM -SHSN BR BKN025
     FM181200 24011KT P6SM SCT025
     FM181400 25012G20KT P6SM SCT025
     FM181900 25012G20KT P6SM VCSH BKN030
     FM182100 24013G20KT P6SM VCSH BKN040
     FM182300 22007KT P6SM SKC=

USA.gov is the U.S. government's official web portal to all federal, state and local government web resources and services.